createdAt,value
2023-01-03T00:00:11.868Z,35.50
2023-01-03T00:02:14.119Z,37.20
2023-01-03T00:04:19.550Z,33.60
2023-01-03T00:06:34.611Z,31.50
2023-01-03T00:08:37.354Z,32.77
2023-01-03T00:10:39.996Z,30.07
2023-01-03T00:12:42.340Z,32.60
2023-01-03T00:14:44.735Z,33.37
2023-01-03T00:16:50.305Z,40.13
2023-01-03T00:18:52.775Z,39.47
2023-01-03T00:20:54.773Z,32.77
2023-01-03T00:22:57.288Z,45.30
2023-01-03T00:24:59.670Z,47.03
2023-01-03T00:27:02.227Z,49.93
2023-01-03T00:29:13.428Z,57.23
2023-01-03T00:31:15.601Z,48.47
2023-01-03T00:33:17.748Z,38.93
2023-01-03T00:35:19.824Z,38.53
2023-01-03T00:37:23.094Z,41.70
2023-01-03T00:39:25.814Z,40.20
2023-01-03T00:41:28.358Z,43.30
2023-01-03T00:43:30.595Z,39.83
2023-01-03T00:45:35.668Z,39.23
2023-01-03T00:47:38.036Z,35.47
2023-01-03T00:49:40.239Z,41.67
2023-01-03T00:51:42.904Z,43.50
2023-01-03T00:53:48.639Z,46.47
2023-01-03T00:55:51.001Z,46.17
2023-01-03T00:57:53.159Z,43.20
2023-01-03T00:59:55.499Z,43.13
2023-01-03T01:01:58.087Z,38.67
2023-01-03T01:04:07.759Z,39.67
2023-01-03T01:06:18.804Z,38.87
2023-01-03T01:08:20.806Z,37.10
2023-01-03T01:10:23.388Z,35.50
2023-01-03T01:12:25.709Z,41.17
2023-01-03T01:14:30.024Z,36.67
2023-01-03T01:16:33.012Z,39.60
2023-01-03T01:18:39.308Z,51.63
2023-01-03T01:20:41.590Z,49.63
2023-01-03T01:22:43.705Z,46.73
2023-01-03T01:24:45.981Z,44.23
2023-01-03T01:26:48.532Z,41.33
2023-01-03T01:28:52.032Z,51.07
2023-01-03T01:30:54.728Z,45.23
2023-01-03T01:32:57.406Z,38.00
2023-01-03T01:34:59.558Z,36.40
2023-01-03T01:37:01.703Z,34.33
2023-01-03T01:39:07.563Z,30.13
2023-01-03T01:41:14.118Z,24.30
2023-01-03T01:43:42.373Z,26.50
2023-01-03T01:45:47.861Z,27.53
2023-01-03T01:48:13.414Z,24.43
2023-01-03T01:50:49.326Z,21.40
2023-01-03T01:52:54.834Z,22.93
2023-01-03T01:54:59.116Z,23.83
2023-01-03T01:57:02.475Z,22.13
2023-01-03T01:59:09.235Z,20.20
2023-01-03T02:01:14.007Z,19.07
2023-01-03T02:03:16.315Z,20.33
2023-01-03T02:09:12.491Z,18.97
2023-01-03T02:11:42.790Z,18.20
2023-01-03T02:14:06.144Z,22.00
2023-01-03T02:16:48.422Z,19.47
2023-01-03T02:19:38.327Z,21.57
2023-01-03T02:21:58.562Z,15.40
2023-01-03T02:24:31.774Z,16.07
2023-01-03T02:26:39.542Z,16.20
2023-01-03T02:29:14.797Z,16.20
2023-01-03T02:31:33.786Z,13.73
2023-01-03T02:33:46.604Z,17.23
2023-01-03T02:36:19.638Z,14.93
2023-01-03T02:38:40.948Z,15.17
2023-01-03T02:40:56.429Z,16.67
2023-01-03T02:43:19.451Z,13.60
2023-01-03T02:45:31.159Z,15.67
2023-01-03T02:47:46.140Z,20.23
2023-01-03T02:49:51.720Z,19.70
2023-01-03T02:51:59.841Z,21.53
2023-01-03T02:54:05.341Z,18.23
2023-01-03T02:56:11.921Z,19.47
2023-01-03T02:58:22.797Z,18.80
2023-01-03T03:00:29.502Z,28.47
2023-01-03T03:02:35.160Z,57.77
2023-01-03T03:04:40.134Z,62.07
2023-01-03T03:06:50.294Z,60.00
2023-01-03T03:08:52.553Z,58.60
2023-01-03T03:11:14.463Z,38.27
2023-01-03T03:13:41.401Z,42.80
2023-01-03T03:16:01.785Z,46.63
2023-01-03T03:18:19.228Z,39.10
2023-01-03T03:20:40.626Z,36.80
2023-01-03T03:23:03.646Z,40.53
2023-01-03T03:25:31.886Z,39.43
2023-01-03T03:28:09.613Z,31.37
2023-01-03T03:30:15.971Z,36.07
2023-01-03T03:32:18.639Z,32.97
2023-01-03T03:34:32.792Z,30.93
2023-01-03T03:36:51.565Z,28.97
2023-01-03T03:38:54.359Z,26.37
2023-01-03T03:41:23.996Z,21.70
2023-01-03T03:44:03.231Z,20.93
2023-01-03T03:46:16.085Z,21.57
2023-01-03T03:49:25.384Z,20.73
2023-01-03T03:51:34.803Z,22.93
2023-01-03T03:53:39.685Z,21.37
2023-01-03T03:55:46.127Z,90.73
2023-01-03T03:57:55.288Z,105.07
2023-01-03T04:00:03.535Z,147.20
2023-01-03T04:02:16.927Z,141.63
2023-01-03T04:04:25.160Z,122.63
2023-01-03T04:06:36.302Z,83.80
2023-01-03T04:08:38.821Z,49.50
2023-01-03T04:10:44.145Z,38.37
2023-01-03T04:12:50.810Z,25.63
2023-01-03T04:14:53.273Z,25.00
2023-01-03T04:16:55.639Z,27.00
2023-01-03T04:18:57.785Z,25.70
2023-01-03T04:21:00.292Z,27.40
2023-01-03T04:23:02.371Z,38.87
2023-01-03T04:25:04.814Z,54.07
2023-01-03T04:27:07.163Z,43.67
2023-01-03T04:29:09.316Z,33.50
2023-01-03T04:31:13.052Z,39.43
2023-01-03T04:33:15.820Z,32.00
2023-01-03T04:35:18.175Z,28.30
2023-01-03T04:37:20.493Z,29.50
2023-01-03T04:39:22.767Z,27.73
2023-01-03T04:41:24.971Z,28.50
2023-01-03T04:43:46.424Z,26.87
2023-01-03T04:45:49.868Z,28.07
2023-01-03T04:47:54.221Z,29.43
2023-01-03T04:49:56.567Z,29.80
2023-01-03T04:51:59.028Z,27.83
2023-01-03T04:54:02.148Z,28.57
2023-01-03T04:56:04.453Z,33.60
2023-01-03T04:58:06.584Z,31.50
2023-01-03T05:00:10.343Z,60.60
2023-01-03T05:02:12.603Z,57.33
2023-01-03T05:04:14.804Z,45.53
2023-01-03T05:06:18.082Z,40.97
2023-01-03T05:08:20.126Z,58.33
2023-01-03T05:10:22.452Z,58.57
2023-01-03T05:12:24.763Z,55.43
2023-01-03T05:14:27.029Z,54.17
2023-01-03T05:16:29.719Z,56.43
2023-01-03T05:18:33.038Z,55.30
2023-01-03T05:20:57.777Z,58.27
2023-01-03T05:23:18.619Z,54.90
2023-01-03T05:25:40.113Z,49.80
2023-01-03T05:27:42.146Z,44.33
2023-01-03T05:29:47.576Z,53.67
2023-01-03T05:31:50.002Z,56.67
2023-01-03T05:33:54.022Z,72.50
2023-01-03T05:35:56.239Z,82.27
2023-01-03T05:37:58.600Z,84.13
2023-01-03T05:40:00.866Z,75.63
2023-01-03T05:42:03.215Z,76.77
2023-01-03T05:44:06.443Z,69.43
2023-01-03T05:46:08.594Z,76.53
2023-01-03T05:48:15.001Z,64.47
2023-01-03T05:50:17.272Z,75.73
2023-01-03T05:52:20.114Z,151.40
2023-01-03T05:54:22.073Z,125.90
2023-01-03T05:56:24.503Z,122.07
2023-01-03T05:58:26.625Z,87.87
2023-01-03T06:00:29.693Z,84.50
2023-01-03T06:02:32.050Z,76.00
2023-01-03T06:04:34.396Z,71.80
2023-01-03T06:06:36.578Z,55.77
2023-01-03T06:08:39.442Z,47.37
2023-01-03T06:10:41.469Z,30.37
2023-01-03T06:12:44.029Z,23.50
2023-01-03T06:14:46.107Z,35.17
2023-01-03T06:17:06.753Z,41.43
2023-01-03T06:19:11.542Z,30.60
2023-01-03T06:21:13.577Z,31.67
2023-01-03T06:23:16.137Z,26.00
2023-01-03T06:25:20.918Z,21.27
2023-01-03T06:27:23.566Z,24.20
2023-01-03T06:29:26.135Z,32.77
2023-01-03T06:31:28.399Z,42.03
2023-01-03T06:33:30.673Z,44.23
2023-01-03T06:35:32.606Z,37.53
2023-01-03T06:37:34.930Z,42.33
2023-01-03T06:39:37.576Z,42.73
2023-01-03T06:41:40.445Z,44.60
2023-01-03T06:43:42.890Z,43.07
2023-01-03T06:46:03.636Z,43.93
2023-01-03T06:48:25.544Z,50.00
2023-01-03T06:50:46.538Z,50.37
2023-01-03T06:53:07.112Z,51.87
2023-01-03T06:55:09.765Z,52.03
2023-01-03T06:57:11.975Z,42.97
2023-01-03T06:59:30.239Z,35.93
2023-01-03T07:01:32.860Z,31.03
2023-01-03T07:03:35.368Z,27.93
2023-01-03T07:05:37.564Z,30.33
2023-01-03T07:07:40.118Z,26.03
2023-01-03T07:09:42.283Z,30.43
2023-01-03T07:11:44.765Z,32.20
2023-01-03T07:13:59.099Z,30.53
2023-01-03T07:16:01.462Z,50.67
2023-01-03T07:18:03.922Z,71.67
2023-01-03T07:20:06.693Z,58.20
2023-01-03T07:22:11.821Z,58.10
2023-01-03T07:24:18.853Z,58.10
2023-01-03T07:26:21.539Z,48.17
2023-01-03T07:28:24.025Z,35.33
2023-01-03T07:30:26.328Z,37.57
2023-01-03T07:32:28.579Z,36.90
2023-01-03T07:34:37.197Z,32.83
2023-01-03T07:36:39.526Z,34.20
2023-01-03T07:38:43.380Z,40.33
2023-01-03T07:40:48.688Z,36.90
2023-01-03T07:43:10.074Z,40.13
2023-01-03T07:45:15.175Z,41.97
2023-01-03T07:47:17.315Z,36.37
2023-01-03T07:49:19.424Z,37.10
2023-01-03T07:51:22.388Z,48.33
2023-01-03T07:53:24.447Z,45.47
2023-01-03T07:55:29.532Z,47.63
2023-01-03T07:57:31.528Z,43.23
2023-01-03T07:59:33.680Z,43.80
2023-01-03T08:01:36.040Z,46.20
2023-01-03T08:03:39.533Z,46.63
2023-01-03T08:05:41.623Z,42.83
2023-01-03T08:07:48.006Z,46.37
2023-01-03T08:10:08.398Z,45.13
2023-01-03T08:12:46.742Z,53.30
2023-01-03T08:14:48.692Z,58.03
2023-01-03T08:16:50.987Z,60.43
2023-01-03T08:18:52.939Z,61.90
2023-01-03T08:20:57.216Z,63.60
2023-01-03T08:23:00.623Z,64.27
2023-01-03T08:25:02.619Z,72.07
2023-01-03T08:27:05.359Z,78.37
2023-01-03T08:29:08.165Z,71.37
2023-01-03T08:31:18.823Z,71.80
2023-01-03T08:33:21.289Z,69.87
2023-01-03T08:35:27.458Z,71.03
2023-01-03T08:37:46.757Z,76.73
2023-01-03T08:39:59.440Z,74.87
2023-01-03T08:42:05.258Z,71.00
2023-01-03T08:44:14.815Z,58.93
2023-01-03T08:46:18.234Z,57.13
2023-01-03T08:48:22.431Z,55.00
2023-01-03T08:50:26.584Z,53.07
2023-01-03T08:52:34.517Z,57.83
2023-01-03T08:54:38.215Z,54.53
2023-01-03T08:56:40.485Z,52.20
2023-01-03T08:58:42.744Z,56.23
2023-01-03T09:00:48.046Z,53.37
2023-01-03T09:02:50.638Z,62.30
2023-01-03T09:04:52.920Z,54.83
2023-01-03T09:06:55.114Z,54.67
2023-01-03T09:08:57.355Z,56.00
2023-01-03T09:10:59.353Z,57.43
2023-01-03T09:13:04.951Z,54.03
2023-01-03T09:15:07.439Z,57.20
2023-01-03T09:17:10.003Z,52.93
2023-01-03T09:19:12.042Z,62.03
2023-01-03T09:21:14.129Z,69.67
2023-01-03T09:23:17.869Z,66.33
2023-01-03T09:25:20.340Z,55.77
2023-01-03T09:27:23.322Z,46.00
2023-01-03T09:29:25.485Z,46.10
2023-01-03T09:31:29.441Z,47.50
2023-01-03T09:33:31.907Z,40.10
2023-01-03T09:35:34.433Z,38.87
2023-01-03T09:37:37.288Z,35.73
2023-01-03T09:39:43.774Z,32.37
2023-01-03T09:42:07.324Z,32.50
2023-01-03T09:44:10.377Z,32.10
2023-01-03T09:46:24.644Z,32.10
2023-01-03T09:48:34.841Z,28.17
2023-01-03T09:51:14.067Z,26.97
2023-01-03T09:53:21.160Z,27.47
2023-01-03T09:55:53.679Z,26.83
2023-01-03T09:58:14.304Z,30.27
2023-01-03T10:01:01.212Z,28.53
2023-01-03T10:03:50.397Z,30.33
2023-01-03T10:06:44.274Z,40.17
2023-01-03T10:09:02.075Z,39.97
2023-01-03T10:11:12.463Z,43.10
2023-01-03T10:13:26.517Z,43.53
2023-01-03T10:16:32.882Z,43.83
2023-01-03T10:18:48.235Z,40.17
2023-01-03T10:21:28.325Z,43.27
2023-01-03T10:23:31.320Z,44.03
2023-01-03T10:25:33.509Z,38.10
2023-01-03T10:28:10.704Z,42.00
2023-01-03T10:30:19.977Z,42.20
2023-01-03T10:33:15.427Z,39.63
2023-01-03T10:35:19.783Z,41.07
2023-01-03T10:37:24.362Z,41.50
2023-01-03T10:39:32.804Z,40.83
2023-01-03T10:41:46.305Z,45.85
2023-01-03T10:44:02.737Z,45.83
2023-01-03T10:46:25.638Z,48.47
2023-01-03T10:49:08.389Z,53.50
2023-01-03T10:51:32.711Z,65.50
2023-01-03T10:53:41.693Z,58.63
2023-01-03T10:55:54.960Z,57.63
2023-01-03T10:57:59.399Z,72.30
2023-01-03T11:00:02.084Z,57.77
2023-01-03T11:02:13.031Z,63.00
2023-01-03T11:04:18.455Z,70.83
2023-01-03T11:06:20.827Z,86.68
2023-01-03T11:09:03.210Z,91.47
2023-01-03T11:11:05.734Z,86.27
2023-01-03T11:13:41.134Z,84.70
2023-01-03T11:15:44.002Z,73.45
2023-01-03T11:17:54.762Z,75.90
2023-01-03T11:19:57.539Z,69.22
2023-01-03T11:22:38.639Z,65.10
2023-01-03T11:24:52.768Z,54.47
2023-01-03T11:27:17.900Z,48.67
2023-01-03T11:29:45.029Z,42.37
2023-01-03T11:32:05.600Z,51.13
2023-01-03T11:34:37.915Z,64.15
2023-01-03T11:37:03.532Z,74.03
2023-01-03T11:39:52.532Z,112.97
2023-01-03T11:42:03.269Z,234.98
2023-01-03T11:44:34.437Z,230.15
2023-01-03T11:46:48.574Z,175.55
2023-01-03T11:49:24.638Z,213.30
2023-01-03T11:51:48.450Z,292.10
2023-01-03T11:54:27.320Z,223.27
2023-01-03T11:56:47.319Z,131.50
2023-01-03T11:59:19.644Z,86.38
2023-01-03T12:02:07.552Z,57.55
2023-01-03T12:04:18.932Z,40.83
2023-01-03T12:06:45.093Z,36.60
2023-01-03T12:09:25.079Z,34.38
2023-01-03T12:11:57.305Z,34.47
2023-01-03T12:14:44.155Z,29.58
2023-01-03T12:16:51.836Z,33.75
2023-01-03T12:19:33.113Z,34.17
2023-01-03T12:21:42.267Z,34.30
2023-01-03T12:23:52.769Z,32.03
2023-01-03T12:26:02.707Z,29.42
2023-01-03T12:28:19.147Z,29.23
2023-01-03T12:30:39.850Z,34.50
2023-01-03T12:32:55.449Z,27.02
2023-01-03T12:35:19.566Z,31.03
2023-01-03T12:37:30.202Z,34.72
2023-01-03T12:39:56.895Z,33.00
2023-01-03T12:42:25.081Z,31.63
2023-01-03T12:44:41.190Z,31.42
2023-01-03T12:46:55.453Z,37.85
2023-01-03T12:49:01.561Z,37.70
2023-01-03T12:51:06.403Z,43.40
2023-01-03T12:53:36.066Z,36.20
2023-01-03T12:56:05.343Z,35.67
2023-01-03T12:58:07.498Z,36.15
2023-01-03T13:00:25.951Z,34.47
2023-01-03T13:03:01.800Z,37.08
2023-01-03T13:05:16.495Z,35.63
2023-01-03T13:07:26.410Z,41.17
2023-01-03T13:09:36.126Z,46.33
2023-01-03T13:11:49.065Z,46.78
2023-01-03T13:14:03.317Z,42.97
2023-01-03T13:16:50.976Z,41.28
2023-01-03T13:18:54.235Z,42.25
2023-01-03T13:20:57.215Z,41.05
2023-01-03T13:23:14.380Z,42.85
2023-01-03T13:25:42.122Z,43.60
2023-01-03T13:27:56.599Z,47.58
2023-01-03T13:30:03.668Z,46.08
2023-01-03T13:32:25.394Z,42.25
2023-01-03T13:34:34.493Z,43.67
2023-01-03T13:37:05.827Z,44.83
2023-01-03T13:39:44.915Z,43.10
2023-01-03T13:41:54.453Z,49.42
2023-01-03T13:44:08.935Z,48.83
2023-01-03T13:46:28.071Z,48.88
2023-01-03T13:48:38.770Z,54.25
2023-01-03T13:50:43.176Z,53.97
2023-01-03T13:53:10.562Z,59.28
2023-01-03T13:55:57.673Z,51.85
2023-01-03T13:58:00.401Z,49.25
2023-01-03T14:00:12.520Z,51.55
2023-01-03T14:02:40.475Z,56.05
2023-01-03T14:05:21.191Z,56.08
2023-01-03T14:07:51.321Z,62.03
2023-01-03T14:10:01.110Z,68.80
2023-01-03T14:12:22.042Z,79.85
2023-01-03T14:14:31.235Z,84.78
2023-01-03T14:16:56.253Z,103.57
2023-01-03T14:19:11.500Z,93.43
2023-01-03T14:21:25.876Z,103.03
2023-01-03T14:23:59.230Z,96.97
2023-01-03T14:25:52.159Z,84.93
2023-01-03T14:27:56.387Z,77.23
2023-01-03T14:29:58.830Z,78.90
2023-01-03T14:32:01.249Z,68.70
2023-01-03T14:34:05.728Z,71.00
2023-01-03T14:36:19.287Z,63.90
2023-01-03T14:38:32.299Z,57.05
2023-01-03T14:40:34.924Z,50.25
2023-01-03T14:42:45.506Z,48.58
2023-01-03T14:44:55.943Z,53.13
2023-01-03T14:47:01.310Z,47.57
2023-01-03T14:49:07.278Z,48.97
2023-01-03T14:51:10.637Z,49.75
2023-01-03T14:53:14.124Z,56.03
2023-01-03T14:55:19.213Z,48.83
2023-01-03T14:57:28.327Z,60.87
2023-01-03T14:59:31.965Z,65.57
2023-01-03T15:01:34.545Z,64.40
2023-01-03T15:03:40.963Z,61.43
2023-01-03T15:05:43.700Z,57.05
2023-01-03T15:07:45.972Z,53.83
2023-01-03T15:09:49.429Z,56.88
2023-01-03T15:11:57.460Z,57.20
2023-01-03T15:14:06.768Z,58.63
2023-01-03T15:16:38.154Z,56.23
2023-01-03T15:18:41.160Z,52.83
2023-01-03T15:20:45.237Z,56.50
2023-01-03T15:22:47.710Z,64.07
2023-01-03T15:25:15.966Z,52.95
2023-01-03T15:27:39.460Z,55.13
2023-01-03T15:29:44.835Z,53.77
2023-01-03T15:31:54.266Z,54.70
2023-01-03T15:34:34.283Z,58.07
2023-01-03T15:36:37.550Z,61.23
2023-01-03T15:38:43.845Z,56.00
2023-01-03T15:40:49.641Z,54.77
2023-01-03T15:43:11.428Z,65.07
2023-01-03T15:45:41.311Z,70.13
2023-01-03T15:47:44.476Z,72.33
2023-01-03T15:49:49.749Z,68.63
2023-01-03T15:51:51.660Z,71.33
2023-01-03T15:53:54.288Z,75.93
2023-01-03T15:56:00.941Z,75.60
2023-01-03T15:58:03.100Z,75.03
2023-01-03T16:00:08.091Z,84.40
2023-01-03T16:02:18.457Z,78.10
2023-01-03T16:04:21.932Z,76.47
2023-01-03T16:06:24.360Z,79.75
2023-01-03T16:08:33.592Z,93.03
2023-01-03T16:10:36.632Z,88.17
2023-01-03T16:12:43.728Z,87.57
2023-01-03T16:14:49.410Z,93.50
2023-01-03T16:16:57.169Z,82.90
2023-01-03T16:18:59.786Z,78.33
2023-01-03T16:21:03.142Z,82.30
2023-01-03T16:23:05.655Z,74.80
2023-01-03T16:25:15.718Z,78.57
2023-01-03T16:27:25.705Z,73.23
2023-01-03T16:29:27.874Z,74.60
2023-01-03T16:31:35.523Z,69.87
2023-01-03T16:33:38.511Z,70.80
2023-01-03T16:35:40.605Z,67.73
2023-01-03T16:37:43.146Z,77.40
2023-01-03T16:40:20.359Z,75.27
2023-01-03T16:42:27.970Z,73.47
2023-01-03T16:44:30.157Z,69.07
2023-01-03T16:46:35.214Z,70.67
2023-01-03T16:48:40.956Z,76.57
2023-01-03T16:50:43.797Z,85.03
2023-01-03T16:52:48.707Z,86.03
2023-01-03T16:54:51.450Z,79.33
2023-01-03T16:56:53.558Z,77.73
2023-01-03T16:58:55.739Z,71.40
2023-01-03T17:00:57.718Z,67.67
2023-01-03T17:03:01.188Z,67.37
2023-01-03T17:05:41.676Z,72.32
2023-01-03T17:07:46.614Z,114.30
2023-01-03T17:09:50.485Z,92.53
2023-01-03T17:11:52.639Z,83.63
2023-01-03T17:14:02.056Z,77.73
2023-01-03T17:16:09.480Z,69.73
2023-01-03T17:18:19.968Z,62.23
2023-01-03T17:20:23.351Z,65.73
2023-01-03T17:22:25.630Z,64.03
2023-01-03T17:24:28.903Z,79.30
2023-01-03T17:26:33.246Z,75.93
2023-01-03T17:28:35.652Z,77.50
2023-01-03T17:30:38.331Z,67.70
2023-01-03T17:32:42.934Z,62.87
2023-01-03T17:34:45.320Z,68.33
2023-01-03T17:36:47.273Z,64.70
2023-01-03T17:38:50.290Z,70.60
2023-01-03T17:40:53.064Z,59.47
2023-01-03T17:42:57.665Z,61.03
2023-01-03T17:45:19.277Z,81.13
2023-01-03T17:47:41.784Z,55.77
2023-01-03T17:49:44.001Z,57.37
2023-01-03T17:51:46.465Z,60.88
2023-01-03T17:53:49.967Z,64.00
2023-01-03T17:55:52.785Z,65.07
2023-01-03T17:57:56.596Z,64.17
2023-01-03T17:59:58.992Z,68.47
2023-01-03T18:02:01.298Z,65.30
2023-01-03T18:04:06.219Z,61.63
2023-01-03T18:06:20.228Z,67.90
2023-01-03T18:08:24.036Z,78.60
2023-01-03T18:10:43.769Z,75.07
2023-01-03T18:12:48.425Z,74.63
2023-01-03T18:14:50.894Z,75.40
2023-01-03T18:16:55.221Z,101.67
2023-01-03T18:18:57.788Z,91.17
2023-01-03T18:21:00.201Z,101.07
2023-01-03T18:23:02.488Z,91.13
2023-01-03T18:25:05.294Z,99.37
2023-01-03T18:27:09.566Z,94.30
2023-01-03T18:29:15.513Z,83.03
2023-01-03T18:31:19.670Z,84.63
2023-01-03T18:33:22.246Z,84.30
2023-01-03T18:35:32.392Z,92.37
2023-01-03T18:37:37.721Z,113.40
2023-01-03T18:39:39.981Z,92.77
2023-01-03T18:41:42.597Z,111.73
2023-01-03T18:43:44.616Z,90.20
2023-01-03T18:45:47.771Z,86.23
2023-01-03T18:47:50.826Z,82.10
2023-01-03T18:49:53.222Z,86.17
2023-01-03T18:51:55.969Z,89.13
2023-01-03T18:53:59.892Z,85.33
2023-01-03T18:56:03.160Z,65.67
2023-01-03T18:58:24.120Z,62.33
2023-01-03T19:00:27.428Z,63.50
2023-01-03T19:02:30.672Z,71.60
2023-01-03T19:04:33.346Z,63.00
2023-01-03T19:06:43.261Z,59.47
2023-01-03T19:08:45.844Z,62.30
2023-01-03T19:10:48.245Z,65.50
2023-01-03T19:12:53.524Z,71.90
2023-01-03T19:14:58.451Z,64.27
2023-01-03T19:17:00.580Z,61.83
2023-01-03T19:19:03.362Z,60.87
2023-01-03T19:21:05.870Z,61.63
2023-01-03T19:23:08.336Z,62.77
2023-01-03T19:25:16.366Z,61.10
2023-01-03T19:27:29.934Z,52.23
2023-01-03T19:29:39.769Z,58.83
2023-01-03T19:31:44.639Z,60.20
2023-01-03T19:33:46.765Z,58.67
2023-01-03T19:35:50.098Z,59.63
2023-01-03T19:37:53.018Z,59.20
2023-01-03T19:39:55.489Z,60.17
2023-01-03T19:42:18.651Z,56.23
2023-01-03T19:44:20.942Z,56.10
2023-01-03T19:46:23.374Z,70.43
2023-01-03T19:48:29.147Z,61.93
2023-01-03T19:50:36.117Z,61.87
2023-01-03T19:52:38.583Z,62.47
2023-01-03T19:54:40.859Z,64.20
2023-01-03T19:56:43.550Z,59.57
2023-01-03T19:58:46.109Z,63.80
2023-01-03T20:00:49.683Z,70.87
2023-01-03T20:02:56.434Z,81.70
2023-01-03T20:04:59.296Z,93.10
2023-01-03T20:07:01.626Z,83.17
2023-01-03T20:09:03.840Z,92.70
2023-01-03T20:11:21.178Z,90.67
2023-01-03T20:13:25.770Z,87.73
2023-01-03T20:15:38.034Z,80.07
2023-01-03T20:17:40.205Z,84.47
2023-01-03T20:19:42.411Z,73.37
2023-01-03T20:21:46.495Z,75.17
2023-01-03T20:23:54.707Z,72.90
2023-01-03T20:25:56.931Z,69.30
2023-01-03T20:28:01.027Z,72.77
2023-01-03T20:30:03.847Z,81.13
2023-01-03T20:32:06.630Z,75.13
2023-01-03T20:34:12.191Z,72.77
2023-01-03T20:36:23.216Z,74.70
2023-01-03T20:38:27.583Z,69.03
2023-01-03T20:40:29.923Z,77.00
2023-01-03T20:42:32.060Z,71.63
2023-01-03T20:44:34.069Z,74.23
2023-01-03T20:46:39.053Z,69.13
2023-01-03T20:48:41.442Z,75.30
2023-01-03T20:50:45.324Z,94.20
2023-01-03T20:52:48.244Z,104.10
2023-01-03T20:54:53.230Z,106.03
2023-01-03T20:56:55.272Z,97.33
2023-01-03T20:58:58.634Z,96.07
2023-01-03T21:01:05.396Z,87.37
2023-01-03T21:03:09.280Z,89.87
2023-01-03T21:05:11.833Z,77.33
2023-01-03T21:07:27.130Z,78.80
2023-01-03T21:09:29.160Z,73.73
2023-01-03T21:11:34.082Z,77.37
2023-01-03T21:13:36.949Z,88.70
2023-01-03T21:15:39.402Z,89.40
2023-01-03T21:17:45.653Z,90.87
2023-01-03T21:19:51.027Z,86.97
2023-01-03T21:21:55.248Z,82.17
2023-01-03T21:23:57.760Z,83.83
2023-01-03T21:25:59.867Z,96.87
2023-01-03T21:28:03.204Z,91.90
2023-01-03T21:30:31.164Z,99.70
2023-01-03T21:32:33.520Z,95.03
2023-01-03T21:34:35.727Z,88.57
2023-01-03T21:36:38.325Z,91.40
2023-01-03T21:38:40.727Z,100.37
2023-01-03T21:40:43.137Z,93.30
2023-01-03T21:43:05.433Z,92.70
2023-01-03T21:45:12.966Z,101.30
2023-01-03T21:47:15.197Z,94.13
2023-01-03T21:49:17.767Z,97.33
2023-01-03T21:51:33.137Z,103.40
2023-01-03T21:53:40.204Z,117.10
2023-01-03T21:55:44.616Z,134.60
2023-01-03T21:57:47.112Z,146.50
2023-01-03T21:59:49.386Z,134.17
2023-01-03T22:02:10.350Z,143.20
2023-01-03T22:04:19.707Z,140.50
2023-01-03T22:06:21.963Z,146.33
2023-01-03T22:08:24.097Z,135.03
2023-01-03T22:10:26.899Z,134.07
2023-01-03T22:12:29.171Z,125.80
2023-01-03T22:14:31.572Z,121.33
2023-01-03T22:16:33.807Z,108.30
2023-01-03T22:18:37.246Z,104.00
2023-01-03T22:20:39.414Z,104.83
2023-01-03T22:22:42.794Z,106.30
2023-01-03T22:24:44.997Z,98.17
2023-01-03T22:26:47.398Z,95.13
2023-01-03T22:28:49.616Z,90.57
2023-01-03T22:30:52.133Z,93.77
2023-01-03T22:32:57.569Z,93.53
2023-01-03T22:34:59.832Z,94.67
2023-01-03T22:37:02.026Z,102.13
2023-01-03T22:39:04.373Z,102.90
2023-01-03T22:41:15.296Z,100.40
2023-01-03T22:43:17.849Z,87.20
2023-01-03T22:45:19.991Z,93.63
2023-01-03T22:47:22.322Z,94.47
2023-01-03T22:49:24.527Z,93.73
2023-01-03T22:51:27.098Z,93.87
2023-01-03T22:53:29.376Z,97.43
2023-01-03T22:55:32.360Z,104.87
2023-01-03T22:57:34.896Z,98.60
2023-01-03T22:59:39.370Z,113.43
2023-01-03T23:01:41.437Z,125.00
2023-01-03T23:03:44.405Z,119.20
2023-01-03T23:05:46.448Z,115.73
2023-01-03T23:07:48.530Z,124.23
2023-01-03T23:09:52.683Z,113.33
2023-01-03T23:12:13.245Z,118.67
2023-01-03T23:14:18.255Z,118.70
2023-01-03T23:16:20.507Z,114.40
2023-01-03T23:18:22.841Z,119.00
2023-01-03T23:20:31.177Z,117.93
2023-01-03T23:22:33.357Z,104.60
2023-01-03T23:24:35.621Z,109.63
2023-01-03T23:26:38.139Z,136.00
2023-01-03T23:28:40.357Z,123.43
2023-01-03T23:30:42.566Z,112.83
2023-01-03T23:32:44.665Z,102.50
2023-01-03T23:34:46.816Z,106.83
2023-01-03T23:36:49.193Z,184.63
2023-01-03T23:38:51.633Z,163.90
2023-01-03T23:40:53.984Z,139.70
2023-01-03T23:42:56.023Z,110.97
2023-01-03T23:44:58.405Z,93.47
2023-01-03T23:47:00.481Z,88.10
2023-01-03T23:49:04.965Z,73.87
2023-01-03T23:51:10.807Z,69.20
2023-01-03T23:53:12.818Z,62.90
2023-01-03T23:55:15.242Z,54.53
2023-01-03T23:57:17.674Z,55.00
2023-01-03T23:59:19.698Z,49.90
